KSVN/SVN METAR and TAF weather

Enter ICAO airport designator
Station Type Date Time Source
KSVN METAR 2021/02/27 20:56 UTC NOAA

KSVN 272056Z AUTO 14008KT 10SM FEW075 26/18 A3015 RMK AO2 SLP213 T02570178 56014 $


Station Type Date Time Source
KSVN Decoded METAR 2021/02/27 20:56 UTC NOAA

Hunter U. S. Army Airfield , GA, United States (KSVN) 32-01N 081-09W
Feb 27, 2021 - 03:56 PM EST / 2021.02.27 2056 UTC
Wind: from the SE (140 degrees) at 9 MPH (8 KT):0
Visibility: 10 mile(s):0
Sky conditions: mostly clear
Temperature: 78.3 F (25.7 C)
Dew Point: 64.0 F (17.8 C)
Relative Humidity: 61%
Pressure (altimeter): 30.15 in. Hg (1020 hPa)
Pressure tendency: 0.04 inches (1.4 hPa) lower than three hours ago
ob: KSVN 272056Z AUTO 14008KT 10SM FEW075 26/18 A3015 RMK AO2 SLP213 T02570178 56014
cycle: 21

Station Type Date Time Source
KSVN TAF 2021/02/27 21:24 UTC NOAA

TAF KSVN 272100Z 2721/0103 14009KT 9999 SKC QNH3012INS
BECMG 2808/2809 VRB06KT 6000 BR BKN005 QNH3017INS
BECMG 2811/2812 18006KT 8000 BR SCT005 QNH3015INS
BECMG 2814/2815 18006KT 9999 NSW SCT005 QNH3013INS TX28/2821Z TN13/2811Z

Example: see airport list